Evesboro, New Jersey
Current Conditions -  °F | °C
As of 6:54 PM on Monday 20 Oct 2014 (Local Time) from KVAY Reporting Station
Clear Clear  
Wind Chill: 51°   Ceiling: Unl
Heat Index: 51°   Visibility: 10mi
Dew Point: 42°   Wind: 0mph
Humidity: 71%   Direction: NA
Pressure: 29.97"   Gusts: NA
Location:  39.8786°N, 74.8969°W
Report Text: KVAY 202254Z AUTO 00000KT 10SM CLR 11/06 A2997 RMK AO2 SLP150 T01060056
Loading
Personal Weather Stations






























Interactive Weather Map
Tropical Storm Tracking
New forecast layout! Learn more

10-Day Weather Forecast

Advertisements
Track Severe Weather on mobile